sensor_id;sensor_type;location;lat;lon;timestamp;P1;durP1;ratioP1;P2;durP2;ratioP2
56427;SDS011;42331;53.578;9.760;2024-01-15T00:01:56;10.00;;;1.10;;
56427;SDS011;42331;53.578;9.760;2024-01-15T00:04:27;13.40;;;0.90;;
56427;SDS011;42331;53.578;9.760;2024-01-15T00:06:58;12.57;;;1.30;;
56427;SDS011;42331;53.578;9.760;2024-01-15T00:09:28;11.73;;;0.83;;
56427;SDS011;42331;53.578;9.760;2024-01-15T00:12:00;6.57;;;0.93;;
56427;SDS011;42331;53.578;9.760;2024-01-15T00:14:31;11.40;;;1.25;;
56427;SDS011;42331;53.578;9.760;2024-01-15T00:17:01;9.23;;;0.80;;
56427;SDS011;42331;53.578;9.760;2024-01-15T00:19:32;6.60;;;0.80;;
56427;SDS011;42331;53.578;9.760;2024-01-15T00:22:03;14.33;;;0.87;;
56427;SDS011;42331;53.578;9.760;2024-01-15T00:24:34;12.47;;;1.13;;
56427;SDS011;42331;53.578;9.760;2024-01-15T00:27:04;18.50;;;1.27;;
56427;SDS011;42331;53.578;9.760;2024-01-15T00:29:35;13.20;;;1.00;;
56427;SDS011;42331;53.578;9.760;2024-01-15T00:32:06;10.63;;;1.20;;
56427;SDS011;42331;53.578;9.760;2024-01-15T00:34:37;14.37;;;1.60;;
56427;SDS011;42331;53.578;9.760;2024-01-15T00:37:07;7.57;;;1.13;;
56427;SDS011;42331;53.578;9.760;2024-01-15T00:39:38;10.80;;;1.03;;
56427;SDS011;42331;53.578;9.760;2024-01-15T00:42:09;10.83;;;1.23;;
56427;SDS011;42331;53.578;9.760;2024-01-15T00:44:39;11.67;;;1.10;;
56427;SDS011;42331;53.578;9.760;2024-01-15T00:47:10;10.80;;;1.17;;
56427;SDS011;42331;53.578;9.760;2024-01-15T00:49:41;12.10;;;1.23;;
56427;SDS011;42331;53.578;9.760;2024-01-15T00:52:12;15.27;;;1.58;;
56427;SDS011;42331;53.578;9.760;2024-01-15T00:54:42;8.93;;;0.80;;
56427;SDS011;42331;53.578;9.760;2024-01-15T00:57:13;9.40;;;1.07;;
56427;SDS011;42331;53.578;9.760;2024-01-15T00:59:44;10.10;;;1.20;;
56427;SDS011;42331;53.578;9.760;2024-01-15T01:02:14;22.83;;;1.77;;
56427;SDS011;42331;53.578;9.760;2024-01-15T01:04:45;9.33;;;1.13;;
56427;SDS011;42331;53.578;9.760;2024-01-15T01:07:16;12.93;;;1.67;;
56427;SDS011;42331;53.578;9.760;2024-01-15T01:09:46;11.17;;;1.03;;
56427;SDS011;42331;53.578;9.760;2024-01-15T01:12:18;12.63;;;1.10;;
56427;SDS011;42331;53.578;9.760;2024-01-15T01:14:48;11.27;;;1.23;;
56427;SDS011;42331;53.578;9.760;2024-01-15T01:17:19;10.80;;;1.80;;
56427;SDS011;42331;53.578;9.760;2024-01-15T01:19:50;11.33;;;1.03;;
56427;SDS011;42331;53.578;9.760;2024-01-15T01:22:20;10.13;;;1.07;;
56427;SDS011;42331;53.578;9.760;2024-01-15T01:24:51;15.00;;;1.00;;
56427;SDS011;42331;53.578;9.760;2024-01-15T01:27:24;10.03;;;1.00;;
56427;SDS011;42331;53.578;9.760;2024-01-15T01:29:55;7.95;;;0.93;;
56427;SDS011;42331;53.578;9.760;2024-01-15T01:32:26;11.40;;;1.00;;
56427;SDS011;42331;53.578;9.760;2024-01-15T01:34:57;15.30;;;1.20;;
56427;SDS011;42331;53.578;9.760;2024-01-15T01:37:27;13.73;;;1.40;;
56427;SDS011;42331;53.578;9.760;2024-01-15T01:39:58;9.33;;;1.10;;
56427;SDS011;42331;53.578;9.760;2024-01-15T01:42:29;11.07;;;1.17;;
56427;SDS011;42331;53.578;9.760;2024-01-15T01:44:59;9.37;;;1.20;;
56427;SDS011;42331;53.578;9.760;2024-01-15T01:47:30;10.23;;;1.37;;
56427;SDS011;42331;53.578;9.760;2024-01-15T01:50:02;15.18;;;1.10;;
56427;SDS011;42331;53.578;9.760;2024-01-15T01:52:33;9.13;;;0.95;;
56427;SDS011;42331;53.578;9.760;2024-01-15T01:55:05;9.48;;;1.33;;
56427;SDS011;42331;53.578;9.760;2024-01-15T01:57:39;11.70;;;1.40;;
56427;SDS011;42331;53.578;9.760;2024-01-15T02:00:11;12.00;;;1.15;;
56427;SDS011;42331;53.578;9.760;2024-01-15T02:02:42;9.93;;;1.30;;
56427;SDS011;42331;53.578;9.760;2024-01-15T02:05:13;8.87;;;1.20;;
56427;SDS011;42331;53.578;9.760;2024-01-15T02:07:48;8.15;;;1.20;;
56427;SDS011;42331;53.578;9.760;2024-01-15T02:10:18;8.53;;;1.00;;
56427;SDS011;42331;53.578;9.760;2024-01-15T02:12:51;5.37;;;0.87;;
56427;SDS011;42331;53.578;9.760;2024-01-15T02:15:24;12.35;;;1.45;;
56427;SDS011;42331;53.578;9.760;2024-01-15T02:18:02;5.30;;;1.30;;
56427;SDS011;42331;53.578;9.760;2024-01-15T02:20:34;8.45;;;0.90;;
56427;SDS011;42331;53.578;9.760;2024-01-15T02:23:12;10.90;;;1.73;;
56427;SDS011;42331;53.578;9.760;2024-01-15T02:25:44;10.82;;;1.10;;
56427;SDS011;42331;53.578;9.760;2024-01-15T02:28:17;9.07;;;1.30;;
56427;SDS011;42331;53.578;9.760;2024-01-15T02:30:48;13.05;;;1.52;;
56427;SDS011;42331;53.578;9.760;2024-01-15T02:33:18;7.13;;;0.87;;
56427;SDS011;42331;53.578;9.760;2024-01-15T02:35:49;9.93;;;1.70;;
56427;SDS011;42331;53.578;9.760;2024-01-15T02:38:20;6.33;;;1.17;;
56427;SDS011;42331;53.578;9.760;2024-01-15T02:40:50;13.17;;;1.30;;
56427;SDS011;42331;53.578;9.760;2024-01-15T02:43:21;9.73;;;1.30;;
56427;SDS011;42331;53.578;9.760;2024-01-15T02:45:52;7.83;;;1.20;;
56427;SDS011;42331;53.578;9.760;2024-01-15T02:48:22;9.70;;;1.10;;
56427;SDS011;42331;53.578;9.760;2024-01-15T02:50:53;14.47;;;1.20;;
56427;SDS011;42331;53.578;9.760;2024-01-15T02:53:24;7.73;;;0.77;;
56427;SDS011;42331;53.578;9.760;2024-01-15T02:55:54;7.93;;;1.20;;
56427;SDS011;42331;53.578;9.760;2024-01-15T02:58:25;17.07;;;1.73;;
56427;SDS011;42331;53.578;9.760;2024-01-15T03:00:56;9.70;;;1.20;;
56427;SDS011;42331;53.578;9.760;2024-01-15T03:03:26;15.97;;;1.20;;
56427;SDS011;42331;53.578;9.760;2024-01-15T03:05:57;9.90;;;1.00;;
56427;SDS011;42331;53.578;9.760;2024-01-15T03:08:28;9.57;;;1.23;;
56427;SDS011;42331;53.578;9.760;2024-01-15T03:10:59;11.30;;;1.17;;
56427;SDS011;42331;53.578;9.760;2024-01-15T03:13:30;13.87;;;1.37;;
56427;SDS011;42331;53.578;9.760;2024-01-15T03:16:00;13.60;;;1.80;;
56427;SDS011;42331;53.578;9.760;2024-01-15T03:18:31;10.95;;;1.30;;
56427;SDS011;42331;53.578;9.760;2024-01-15T03:21:02;14.13;;;1.67;;
56427;SDS011;42331;53.578;9.760;2024-01-15T03:23:34;13.27;;;1.58;;
56427;SDS011;42331;53.578;9.760;2024-01-15T03:26:05;11.70;;;0.97;;
56427;SDS011;42331;53.578;9.760;2024-01-15T03:28:36;12.57;;;1.53;;
56427;SDS011;42331;53.578;9.760;2024-01-15T03:31:07;11.00;;;1.33;;
56427;SDS011;42331;53.578;9.760;2024-01-15T03:33:38;9.80;;;1.43;;
56427;SDS011;42331;53.578;9.760;2024-01-15T03:36:08;17.73;;;1.77;;
56427;SDS011;42331;53.578;9.760;2024-01-15T03:38:40;13.60;;;2.00;;
56427;SDS011;42331;53.578;9.760;2024-01-15T03:41:12;13.02;;;1.00;;
56427;SDS011;42331;53.578;9.760;2024-01-15T03:43:43;14.37;;;1.50;;
56427;SDS011;42331;53.578;9.760;2024-01-15T03:46:13;13.63;;;2.43;;
56427;SDS011;42331;53.578;9.760;2024-01-15T03:48:44;23.60;;;1.53;;
56427;SDS011;42331;53.578;9.760;2024-01-15T03:51:16;9.97;;;1.13;;
56427;SDS011;42331;53.578;9.760;2024-01-15T03:53:47;16.13;;;1.50;;
56427;SDS011;42331;53.578;9.760;2024-01-15T03:56:18;19.27;;;2.03;;
56427;SDS011;42331;53.578;9.760;2024-01-15T03:58:49;12.13;;;0.97;;
56427;SDS011;42331;53.578;9.760;2024-01-15T04:01:19;18.50;;;1.77;;
56427;SDS011;42331;53.578;9.760;2024-01-15T04:03:50;18.70;;;1.90;;
56427;SDS011;42331;53.578;9.760;2024-01-15T04:06:21;13.67;;;1.23;;
56427;SDS011;42331;53.578;9.760;2024-01-15T04:08:51;12.73;;;1.77;;
56427;SDS011;42331;53.578;9.760;2024-01-15T04:11:22;22.83;;;1.53;;
56427;SDS011;42331;53.578;9.760;2024-01-15T04:13:53;24.70;;;1.83;;
56427;SDS011;42331;53.578;9.760;2024-01-15T04:16:25;15.68;;;1.40;;
56427;SDS011;42331;53.578;9.760;2024-01-15T04:18:56;13.70;;;1.83;;
56427;SDS011;42331;53.578;9.760;2024-01-15T04:21:26;13.83;;;1.77;;
56427;SDS011;42331;53.578;9.760;2024-01-15T04:23:57;14.77;;;1.30;;
56427;SDS011;42331;53.578;9.760;2024-01-15T04:26:27;13.03;;;1.93;;
56427;SDS011;42331;53.578;9.760;2024-01-15T04:28:58;13.67;;;1.20;;
56427;SDS011;42331;53.578;9.760;2024-01-15T04:31:29;9.73;;;1.00;;
56427;SDS011;42331;53.578;9.760;2024-01-15T04:34:00;17.77;;;1.70;;
56427;SDS011;42331;53.578;9.760;2024-01-15T04:36:30;14.73;;;1.20;;
56427;SDS011;42331;53.578;9.760;2024-01-15T04:39:01;18.23;;;1.87;;
56427;SDS011;42331;53.578;9.760;2024-01-15T04:41:32;18.53;;;1.97;;
56427;SDS011;42331;53.578;9.760;2024-01-15T04:44:03;21.10;;;1.92;;
56427;SDS011;42331;53.578;9.760;2024-01-15T04:46:33;16.07;;;1.80;;
56427;SDS011;42331;53.578;9.760;2024-01-15T04:49:04;14.87;;;1.50;;
56427;SDS011;42331;53.578;9.760;2024-01-15T04:51:35;21.33;;;1.87;;
56427;SDS011;42331;53.578;9.760;2024-01-15T04:54:05;19.03;;;2.17;;
56427;SDS011;42331;53.578;9.760;2024-01-15T04:56:36;16.50;;;1.70;;
56427;SDS011;42331;53.578;9.760;2024-01-15T04:59:07;19.10;;;2.23;;
56427;SDS011;42331;53.578;9.760;2024-01-15T05:01:38;13.57;;;2.17;;
56427;SDS011;42331;53.578;9.760;2024-01-15T05:04:08;14.27;;;1.17;;
56427;SDS011;42331;53.578;9.760;2024-01-15T05:06:39;14.37;;;1.47;;
56427;SDS011;42331;53.578;9.760;2024-01-15T05:09:09;9.23;;;1.17;;
56427;SDS011;42331;53.578;9.760;2024-01-15T05:11:40;19.30;;;2.20;;
56427;SDS011;42331;53.578;9.760;2024-01-15T05:14:11;7.37;;;1.07;;
56427;SDS011;42331;53.578;9.760;2024-01-15T05:16:48;9.03;;;1.00;;
56427;SDS011;42331;53.578;9.760;2024-01-15T05:19:19;11.98;;;1.52;;
56427;SDS011;42331;53.578;9.760;2024-01-15T05:21:50;12.10;;;1.30;;
56427;SDS011;42331;53.578;9.760;2024-01-15T05:24:20;17.10;;;2.00;;
56427;SDS011;42331;53.578;9.760;2024-01-15T05:26:51;12.03;;;1.40;;
56427;SDS011;42331;53.578;9.760;2024-01-15T05:29:22;17.73;;;1.33;;
56427;SDS011;42331;53.578;9.760;2024-01-15T05:31:53;21.43;;;2.13;;
56427;SDS011;42331;53.578;9.760;2024-01-15T05:34:23;19.83;;;1.90;;
56427;SDS011;42331;53.578;9.760;2024-01-15T05:36:54;17.10;;;1.50;;
56427;SDS011;42331;53.578;9.760;2024-01-15T05:39:25;10.13;;;1.10;;
56427;SDS011;42331;53.578;9.760;2024-01-15T05:41:55;14.20;;;1.60;;
56427;SDS011;42331;53.578;9.760;2024-01-15T05:44:26;16.50;;;1.67;;
56427;SDS011;42331;53.578;9.760;2024-01-15T05:46:57;15.57;;;1.90;;
56427;SDS011;42331;53.578;9.760;2024-01-15T05:49:27;16.63;;;2.30;;
56427;SDS011;42331;53.578;9.760;2024-01-15T05:51:58;12.43;;;1.60;;
56427;SDS011;42331;53.578;9.760;2024-01-15T05:54:29;14.57;;;2.07;;
56427;SDS011;42331;53.578;9.760;2024-01-15T05:56:59;15.43;;;1.63;;
56427;SDS011;42331;53.578;9.760;2024-01-15T05:59:30;14.07;;;1.58;;
56427;SDS011;42331;53.578;9.760;2024-01-15T06:02:03;17.55;;;1.42;;
56427;SDS011;42331;53.578;9.760;2024-01-15T06:04:34;19.27;;;1.73;;
56427;SDS011;42331;53.578;9.760;2024-01-15T06:07:05;12.83;;;1.37;;
56427;SDS011;42331;53.578;9.760;2024-01-15T06:09:35;13.97;;;1.57;;
56427;SDS011;42331;53.578;9.760;2024-01-15T06:12:07;10.17;;;1.60;;
56427;SDS011;42331;53.578;9.760;2024-01-15T06:14:38;15.85;;;1.83;;
56427;SDS011;42331;53.578;9.760;2024-01-15T06:17:08;10.20;;;1.60;;
56427;SDS011;42331;53.578;9.760;2024-01-15T06:19:39;7.80;;;0.93;;
56427;SDS011;42331;53.578;9.760;2024-01-15T06:22:10;11.27;;;1.20;;
56427;SDS011;42331;53.578;9.760;2024-01-15T06:24:41;15.85;;;1.60;;
56427;SDS011;42331;53.578;9.760;2024-01-15T06:27:11;13.77;;;2.87;;
56427;SDS011;42331;53.578;9.760;2024-01-15T06:29:44;17.10;;;2.20;;
56427;SDS011;42331;53.578;9.760;2024-01-15T06:32:19;16.73;;;1.80;;
56427;SDS011;42331;53.578;9.760;2024-01-15T06:34:49;14.07;;;1.43;;
56427;SDS011;42331;53.578;9.760;2024-01-15T06:37:20;16.23;;;1.63;;
56427;SDS011;42331;53.578;9.760;2024-01-15T06:39:51;14.02;;;1.25;;
56427;SDS011;42331;53.578;9.760;2024-01-15T06:42:22;17.50;;;1.37;;
56427;SDS011;42331;53.578;9.760;2024-01-15T06:44:52;25.33;;;3.00;;
56427;SDS011;42331;53.578;9.760;2024-01-15T06:47:23;13.50;;;1.00;;
56427;SDS011;42331;53.578;9.760;2024-01-15T06:49:54;7.10;;;1.07;;
56427;SDS011;42331;53.578;9.760;2024-01-15T06:52:25;15.57;;;1.57;;
56427;SDS011;42331;53.578;9.760;2024-01-15T06:54:55;11.20;;;1.30;;
56427;SDS011;42331;53.578;9.760;2024-01-15T06:57:26;14.90;;;1.43;;
56427;SDS011;42331;53.578;9.760;2024-01-15T06:59:56;11.60;;;1.00;;
56427;SDS011;42331;53.578;9.760;2024-01-15T07:02:27;8.50;;;1.03;;
56427;SDS011;42331;53.578;9.760;2024-01-15T07:04:58;10.50;;;1.17;;
56427;SDS011;42331;53.578;9.760;2024-01-15T07:07:28;10.90;;;0.90;;
56427;SDS011;42331;53.578;9.760;2024-01-15T07:09:59;10.43;;;1.73;;
56427;SDS011;42331;53.578;9.760;2024-01-15T07:12:30;13.17;;;1.43;;
56427;SDS011;42331;53.578;9.760;2024-01-15T07:15:01;8.53;;;1.27;;
56427;SDS011;42331;53.578;9.760;2024-01-15T07:17:32;10.27;;;0.87;;
56427;SDS011;42331;53.578;9.760;2024-01-15T07:20:03;8.27;;;0.83;;
56427;SDS011;42331;53.578;9.760;2024-01-15T07:22:35;6.77;;;0.97;;
56427;SDS011;42331;53.578;9.760;2024-01-15T07:25:06;7.30;;;0.93;;
56427;SDS011;42331;53.578;9.760;2024-01-15T07:27:37;5.53;;;0.73;;
56427;SDS011;42331;53.578;9.760;2024-01-15T07:30:08;8.67;;;1.40;;
56427;SDS011;42331;53.578;9.760;2024-01-15T07:32:39;13.57;;;1.60;;
56427;SDS011;42331;53.578;9.760;2024-01-15T07:35:10;10.07;;;0.80;;
56427;SDS011;42331;53.578;9.760;2024-01-15T07:37:41;8.93;;;0.97;;
56427;SDS011;42331;53.578;9.760;2024-01-15T07:40:12;7.50;;;1.00;;
56427;SDS011;42331;53.578;9.760;2024-01-15T07:42:42;12.13;;;1.00;;
56427;SDS011;42331;53.578;9.760;2024-01-15T07:45:13;5.57;;;1.07;;
56427;SDS011;42331;53.578;9.760;2024-01-15T07:47:44;7.95;;;0.80;;
56427;SDS011;42331;53.578;9.760;2024-01-15T07:50:15;14.73;;;1.40;;
56427;SDS011;42331;53.578;9.760;2024-01-15T07:52:45;2.83;;;0.22;;
56427;SDS011;42331;53.578;9.760;2024-01-15T07:55:16;10.63;;;1.00;;
56427;SDS011;42331;53.578;9.760;2024-01-15T07:57:47;8.40;;;0.87;;
56427;SDS011;42331;53.578;9.760;2024-01-15T08:00:18;14.67;;;1.10;;
56427;SDS011;42331;53.578;9.760;2024-01-15T08:02:49;12.03;;;1.10;;
56427;SDS011;42331;53.578;9.760;2024-01-15T08:05:20;8.48;;;1.00;;
56427;SDS011;42331;53.578;9.760;2024-01-15T08:07:51;11.67;;;1.10;;
56427;SDS011;42331;53.578;9.760;2024-01-15T08:10:22;10.43;;;1.33;;
56427;SDS011;42331;53.578;9.760;2024-01-15T08:12:52;11.57;;;1.17;;
56427;SDS011;42331;53.578;9.760;2024-01-15T08:15:23;7.43;;;1.10;;
56427;SDS011;42331;53.578;9.760;2024-01-15T08:17:54;9.97;;;1.07;;
56427;SDS011;42331;53.578;9.760;2024-01-15T08:20:25;9.40;;;1.27;;
56427;SDS011;42331;53.578;9.760;2024-01-15T08:22:55;5.97;;;0.63;;
56427;SDS011;42331;53.578;9.760;2024-01-15T08:25:26;9.03;;;0.97;;
56427;SDS011;42331;53.578;9.760;2024-01-15T08:27:57;4.97;;;0.93;;
56427;SDS011;42331;53.578;9.760;2024-01-15T08:30:27;2.93;;;0.60;;
56427;SDS011;42331;53.578;9.760;2024-01-15T08:32:58;6.40;;;0.57;;
56427;SDS011;42331;53.578;9.760;2024-01-15T08:35:31;7.38;;;0.80;;
56427;SDS011;42331;53.578;9.760;2024-01-15T08:38:01;9.60;;;0.80;;
56427;SDS011;42331;53.578;9.760;2024-01-15T08:40:32;8.47;;;0.80;;
56427;SDS011;42331;53.578;9.760;2024-01-15T08:43:03;4.67;;;0.80;;
56427;SDS011;42331;53.578;9.760;2024-01-15T08:45:36;5.40;;;0.88;;
56427;SDS011;42331;53.578;9.760;2024-01-15T08:48:07;7.67;;;0.67;;
56427;SDS011;42331;53.578;9.760;2024-01-15T08:50:38;8.73;;;1.35;;
56427;SDS011;42331;53.578;9.760;2024-01-15T08:53:08;4.13;;;0.63;;
56427;SDS011;42331;53.578;9.760;2024-01-15T08:55:39;12.37;;;1.50;;
56427;SDS011;42331;53.578;9.760;2024-01-15T08:58:12;13.10;;;1.20;;
56427;SDS011;42331;53.578;9.760;2024-01-15T09:00:43;6.53;;;0.80;;
56427;SDS011;42331;53.578;9.760;2024-01-15T09:03:13;9.27;;;1.27;;
56427;SDS011;42331;53.578;9.760;2024-01-15T09:05:44;7.10;;;1.23;;
56427;SDS011;42331;53.578;9.760;2024-01-15T09:08:20;10.32;;;1.42;;
56427;SDS011;42331;53.578;9.760;2024-01-15T09:10:50;7.90;;;1.30;;
56427;SDS011;42331;53.578;9.760;2024-01-15T09:13:21;5.17;;;1.27;;
56427;SDS011;42331;53.578;9.760;2024-01-15T09:15:52;9.10;;;1.10;;
56427;SDS011;42331;53.578;9.760;2024-01-15T09:18:22;4.47;;;0.97;;
56427;SDS011;42331;53.578;9.760;2024-01-15T09:20:53;6.17;;;1.00;;
56427;SDS011;42331;53.578;9.760;2024-01-15T09:23:24;4.97;;;1.30;;
56427;SDS011;42331;53.578;9.760;2024-01-15T09:25:54;7.77;;;1.23;;
56427;SDS011;42331;53.578;9.760;2024-01-15T09:28:25;4.90;;;0.83;;
56427;SDS011;42331;53.578;9.760;2024-01-15T09:30:56;9.18;;;0.82;;
56427;SDS011;42331;53.578;9.760;2024-01-15T09:33:26;7.40;;;1.30;;
56427;SDS011;42331;53.578;9.760;2024-01-15T09:35:57;4.67;;;0.90;;
56427;SDS011;42331;53.578;9.760;2024-01-15T09:38:30;7.25;;;1.05;;
56427;SDS011;42331;53.578;9.760;2024-01-15T09:41:01;9.43;;;1.07;;
56427;SDS011;42331;53.578;9.760;2024-01-15T09:43:32;6.97;;;1.00;;
56427;SDS011;42331;53.578;9.760;2024-01-15T09:46:03;6.33;;;0.87;;
56427;SDS011;42331;53.578;9.760;2024-01-15T09:48:34;12.03;;;1.13;;
56427;SDS011;42331;53.578;9.760;2024-01-15T09:51:05;4.30;;;0.70;;
56427;SDS011;42331;53.578;9.760;2024-01-15T09:53:37;13.07;;;0.98;;
56427;SDS011;42331;53.578;9.760;2024-01-15T09:56:10;6.40;;;0.90;;
56427;SDS011;42331;53.578;9.760;2024-01-15T09:58:42;5.85;;;0.90;;
56427;SDS011;42331;53.578;9.760;2024-01-15T10:01:12;6.00;;;0.73;;
56427;SDS011;42331;53.578;9.760;2024-01-15T10:03:47;8.10;;;0.90;;
56427;SDS011;42331;53.578;9.760;2024-01-15T10:06:17;13.37;;;1.53;;
56427;SDS011;42331;53.578;9.760;2024-01-15T10:08:49;12.70;;;0.83;;
56427;SDS011;42331;53.578;9.760;2024-01-15T10:11:20;10.27;;;0.90;;
56427;SDS011;42331;53.578;9.760;2024-01-15T10:13:51;5.60;;;0.90;;
56427;SDS011;42331;53.578;9.760;2024-01-15T10:16:25;9.80;;;0.95;;
56427;SDS011;42331;53.578;9.760;2024-01-15T10:18:56;3.15;;;0.68;;
56427;SDS011;42331;53.578;9.760;2024-01-15T10:21:27;4.33;;;0.80;;
56427;SDS011;42331;53.578;9.760;2024-01-15T10:23:58;7.43;;;0.63;;
56427;SDS011;42331;53.578;9.760;2024-01-15T10:26:31;4.13;;;0.70;;
56427;SDS011;42331;53.578;9.760;2024-01-15T10:29:02;5.53;;;0.73;;
56427;SDS011;42331;53.578;9.760;2024-01-15T10:31:33;3.20;;;0.30;;
56427;SDS011;42331;53.578;9.760;2024-01-15T10:34:09;4.63;;;0.50;;
56427;SDS011;42331;53.578;9.760;2024-01-15T10:36:45;4.45;;;0.65;;
56427;SDS011;42331;53.578;9.760;2024-01-15T10:39:17;4.00;;;0.63;;
56427;SDS011;42331;53.578;9.760;2024-01-15T10:41:49;4.57;;;0.70;;
56427;SDS011;42331;53.578;9.760;2024-01-15T10:44:21;3.20;;;0.50;;
56427;SDS011;42331;53.578;9.760;2024-01-15T10:46:51;6.23;;;0.80;;
56427;SDS011;42331;53.578;9.760;2024-01-15T10:49:22;6.13;;;0.70;;
56427;SDS011;42331;53.578;9.760;2024-01-15T10:51:56;4.28;;;0.82;;
56427;SDS011;42331;53.578;9.760;2024-01-15T10:54:27;1.90;;;0.40;;
56427;SDS011;42331;53.578;9.760;2024-01-15T10:56:58;6.67;;;0.50;;
56427;SDS011;42331;53.578;9.760;2024-01-15T10:59:29;1.83;;;0.30;;
56427;SDS011;42331;53.578;9.760;2024-01-15T11:01:59;2.50;;;0.40;;
56427;SDS011;42331;53.578;9.760;2024-01-15T11:04:31;0.50;;;0.30;;
56427;SDS011;42331;53.578;9.760;2024-01-15T11:07:02;3.22;;;0.52;;
56427;SDS011;42331;53.578;9.760;2024-01-15T11:09:34;4.43;;;0.80;;
56427;SDS011;42331;53.578;9.760;2024-01-15T11:12:11;1.38;;;0.47;;
56427;SDS011;42331;53.578;9.760;2024-01-15T11:14:46;3.88;;;0.60;;
56427;SDS011;42331;53.578;9.760;2024-01-15T11:17:20;5.05;;;0.70;;
56427;SDS011;42331;53.578;9.760;2024-01-15T11:19:51;3.57;;;1.20;;
56427;SDS011;42331;53.578;9.760;2024-01-15T11:25:03;3.35;;;0.75;;
56427;SDS011;42331;53.578;9.760;2024-01-15T11:27:50;5.68;;;0.63;;
56427;SDS011;42331;53.578;9.760;2024-01-15T11:30:24;2.30;;;0.60;;
56427;SDS011;42331;53.578;9.760;2024-01-15T11:32:55;4.93;;;1.05;;
56427;SDS011;42331;53.578;9.760;2024-01-15T11:35:30;1.40;;;0.40;;
56427;SDS011;42331;53.578;9.760;2024-01-15T11:38:27;4.82;;;0.40;;
56427;SDS011;42331;53.578;9.760;2024-01-15T11:41:01;0.98;;;0.30;;
56427;SDS011;42331;53.578;9.760;2024-01-15T11:43:43;1.88;;;0.30;;
56427;SDS011;42331;53.578;9.760;2024-01-15T11:46:14;0.83;;;0.30;;
56427;SDS011;42331;53.578;9.760;2024-01-15T11:48:47;1.80;;;0.35;;
56427;SDS011;42331;53.578;9.760;2024-01-15T11:51:28;1.48;;;0.45;;
56427;SDS011;42331;53.578;9.760;2024-01-15T11:53:58;3.67;;;0.53;;
56427;SDS011;42331;53.578;9.760;2024-01-15T11:56:35;0.88;;;0.35;;
56427;SDS011;42331;53.578;9.760;2024-01-15T11:59:06;3.03;;;0.70;;
56427;SDS011;42331;53.578;9.760;2024-01-15T12:01:37;1.42;;;0.50;;
56427;SDS011;42331;53.578;9.760;2024-01-15T12:04:08;4.50;;;0.63;;
56427;SDS011;42331;53.578;9.760;2024-01-15T12:06:39;5.20;;;0.87;;
56427;SDS011;42331;53.578;9.760;2024-01-15T12:09:10;5.03;;;1.10;;
56427;SDS011;42331;53.578;9.760;2024-01-15T12:11:42;4.50;;;1.40;;
56427;SDS011;42331;53.578;9.760;2024-01-15T12:14:25;3.80;;;0.70;;
56427;SDS011;42331;53.578;9.760;2024-01-15T12:17:00;1.90;;;0.60;;
56427;SDS011;42331;53.578;9.760;2024-01-15T12:19:31;1.63;;;0.70;;
56427;SDS011;42331;53.578;9.760;2024-01-15T12:22:02;2.27;;;0.70;;
56427;SDS011;42331;53.578;9.760;2024-01-15T12:24:34;3.10;;;1.20;;
56427;SDS011;42331;53.578;9.760;2024-01-15T12:27:06;3.28;;;1.00;;
56427;SDS011;42331;53.578;9.760;2024-01-15T12:29:38;1.50;;;0.70;;
56427;SDS011;42331;53.578;9.760;2024-01-15T12:32:18;3.13;;;1.00;;
56427;SDS011;42331;53.578;9.760;2024-01-15T12:34:54;3.03;;;0.88;;
56427;SDS011;42331;53.578;9.760;2024-01-15T12:37:25;1.90;;;0.70;;
56427;SDS011;42331;53.578;9.760;2024-01-15T12:39:58;1.00;;;0.60;;
56427;SDS011;42331;53.578;9.760;2024-01-15T12:42:36;3.08;;;1.08;;
56427;SDS011;42331;53.578;9.760;2024-01-15T12:45:12;3.03;;;0.88;;
56427;SDS011;42331;53.578;9.760;2024-01-15T12:47:44;1.80;;;0.80;;
56427;SDS011;42331;53.578;9.760;2024-01-15T12:50:16;3.80;;;1.05;;
56427;SDS011;42331;53.578;9.760;2024-01-15T12:53:33;3.00;;;1.00;;
56427;SDS011;42331;53.578;9.760;2024-01-15T12:56:08;3.88;;;1.10;;
56427;SDS011;42331;53.578;9.760;2024-01-15T12:59:20;2.63;;;1.20;;
56427;SDS011;42331;53.578;9.760;2024-01-15T13:01:54;3.27;;;1.00;;
56427;SDS011;42331;53.578;9.760;2024-01-15T13:04:30;2.35;;;1.00;;
56427;SDS011;42331;53.578;9.760;2024-01-15T13:07:01;3.70;;;1.03;;
56427;SDS011;42331;53.578;9.760;2024-01-15T13:09:32;2.17;;;1.03;;
56427;SDS011;42331;53.578;9.760;2024-01-15T13:12:06;2.45;;;1.02;;
56427;SDS011;42331;53.578;9.760;2024-01-15T13:14:39;6.10;;;1.10;;
56427;SDS011;42331;53.578;9.760;2024-01-15T13:17:11;5.47;;;1.08;;
56427;SDS011;42331;53.578;9.760;2024-01-15T13:19:42;2.40;;;0.90;;
56427;SDS011;42331;53.578;9.760;2024-01-15T13:22:13;2.63;;;0.90;;
56427;SDS011;42331;53.578;9.760;2024-01-15T13:24:44;1.25;;;0.60;;
56427;SDS011;42331;53.578;9.760;2024-01-15T13:27:17;3.30;;;1.10;;
56427;SDS011;42331;53.578;9.760;2024-01-15T13:29:48;2.10;;;1.10;;
56427;SDS011;42331;53.578;9.760;2024-01-15T13:32:29;2.20;;;1.10;;
56427;SDS011;42331;53.578;9.760;2024-01-15T13:35:00;2.80;;;1.33;;
56427;SDS011;42331;53.578;9.760;2024-01-15T13:37:31;3.67;;;1.43;;
56427;SDS011;42331;53.578;9.760;2024-01-15T13:40:02;4.13;;;1.33;;
56427;SDS011;42331;53.578;9.760;2024-01-15T13:42:33;3.25;;;1.67;;
56427;SDS011;42331;53.578;9.760;2024-01-15T13:45:05;6.07;;;1.80;;
56427;SDS011;42331;53.578;9.760;2024-01-15T13:47:36;9.90;;;3.83;;
56427;SDS011;42331;53.578;9.760;2024-01-15T13:50:07;4.90;;;2.20;;
56427;SDS011;42331;53.578;9.760;2024-01-15T13:52:38;2.50;;;1.40;;
56427;SDS011;42331;53.578;9.760;2024-01-15T13:55:09;3.30;;;1.20;;
56427;SDS011;42331;53.578;9.760;2024-01-15T13:57:40;2.60;;;1.27;;
56427;SDS011;42331;53.578;9.760;2024-01-15T14:00:11;6.10;;;1.40;;
56427;SDS011;42331;53.578;9.760;2024-01-15T14:05:14;3.88;;;1.40;;
56427;SDS011;42331;53.578;9.760;2024-01-15T14:07:46;4.28;;;1.10;;
56427;SDS011;42331;53.578;9.760;2024-01-15T14:10:17;3.60;;;0.80;;
56427;SDS011;42331;53.578;9.760;2024-01-15T14:12:48;1.90;;;0.93;;
56427;SDS011;42331;53.578;9.760;2024-01-15T14:15:19;2.50;;;0.90;;
56427;SDS011;42331;53.578;9.760;2024-01-15T14:17:51;3.75;;;0.80;;
56427;SDS011;42331;53.578;9.760;2024-01-15T14:20:22;3.25;;;0.90;;
56427;SDS011;42331;53.578;9.760;2024-01-15T14:22:53;2.70;;;0.50;;
56427;SDS011;42331;53.578;9.760;2024-01-15T14:25:24;3.13;;;0.77;;
56427;SDS011;42331;53.578;9.760;2024-01-15T14:27:55;2.40;;;0.70;;
56427;SDS011;42331;53.578;9.760;2024-01-15T14:30:29;3.17;;;0.98;;
56427;SDS011;42331;53.578;9.760;2024-01-15T14:33:00;2.72;;;1.05;;
56427;SDS011;42331;53.578;9.760;2024-01-15T14:35:31;4.37;;;1.33;;
56427;SDS011;42331;53.578;9.760;2024-01-15T14:38:02;3.13;;;1.10;;
56427;SDS011;42331;53.578;9.760;2024-01-15T14:40:34;5.07;;;1.67;;
56427;SDS011;42331;53.578;9.760;2024-01-15T14:43:06;4.47;;;1.50;;
56427;SDS011;42331;53.578;9.760;2024-01-15T14:45:39;4.97;;;2.28;;
56427;SDS011;42331;53.578;9.760;2024-01-15T14:48:09;4.63;;;2.47;;
56427;SDS011;42331;53.578;9.760;2024-01-15T14:50:40;5.90;;;1.33;;
56427;SDS011;42331;53.578;9.760;2024-01-15T14:53:10;2.70;;;1.60;;
56427;SDS011;42331;53.578;9.760;2024-01-15T14:55:41;4.10;;;1.90;;
56427;SDS011;42331;53.578;9.760;2024-01-15T14:58:12;5.13;;;2.13;;
56427;SDS011;42331;53.578;9.760;2024-01-15T15:00:42;2.47;;;1.30;;
56427;SDS011;42331;53.578;9.760;2024-01-15T15:03:13;6.20;;;2.27;;
56427;SDS011;42331;53.578;9.760;2024-01-15T15:05:46;4.22;;;1.80;;
56427;SDS011;42331;53.578;9.760;2024-01-15T15:08:16;5.47;;;2.13;;
56427;SDS011;42331;53.578;9.760;2024-01-15T15:10:47;3.13;;;1.87;;
56427;SDS011;42331;53.578;9.760;2024-01-15T15:13:18;6.70;;;1.97;;
56427;SDS011;42331;53.578;9.760;2024-01-15T15:15:53;3.88;;;1.88;;